Time;durP1;ratioP1;P1;durP2;ratioP2;P2;SDS_P1;SDS_P2;PMS_P1;PMS_P2;Temp;Humidity;BMP_temperature;BMP_pressure;BME280_temperature;BME280_humidity;BME280_pressure;Samples;Min_cycle;Max_cycle;Signal;HPM_P1;HPM_P2
2022/10/03 00:01:08;;;;;;;2.67;1.92;;;;;;;;;;5056181;28;20044;-68
2022/10/03 00:03:37;;;;;;;2.88;1.90;;;;;;;;;;5056622;28;20036;-68
2022/10/03 00:06:08;;;;;;;3.78;2.13;;;;;;;;;;5056122;28;20091;-68
2022/10/03 00:08:33;;;;;;;2.45;1.80;;;;;;;;;;5038718;28;20040;-67
2022/10/03 00:11:08;;;;;;;4.00;1.70;;;;;;;;;;5056334;28;20406;-67
2022/10/03 00:13:39;;;;;;;1.77;1.63;;;;;;;;;;5056410;28;20031;-67
2022/10/03 00:16:19;;;;;;;3.47;2.10;;;;;;;;;;5056159;28;20028;-67
2022/10/03 00:18:48;;;;;;;3.30;1.65;;;;;;;;;;5056408;28;20435;-68
2022/10/03 00:21:28;;;;;;;1.70;1.40;;;;;;;;;;5055918;28;20455;-67
2022/10/03 00:23:53;;;;;;;1.85;1.75;;;;;;;;;;5055432;28;20037;-68
2022/10/03 00:26:29;;;;;;;2.75;1.58;;;;;;;;;;5055670;28;20104;-69
2022/10/03 00:29:03;;;;;;;1.92;1.50;;;;;;;;;;5054845;28;20086;-68
2022/10/03 00:31:37;;;;;;;1.70;1.50;;;;;;;;;;5055878;28;20037;-67
2022/10/03 00:34:06;;;;;;;1.63;1.45;;;;;;;;;;5055509;28;20044;-67
2022/10/03 00:36:41;;;;;;;4.38;1.58;;;;;;;;;;5055497;28;20059;-67
2022/10/03 00:39:10;;;;;;;2.17;1.60;;;;;;;;;;5056085;28;20100;-67
2022/10/03 00:41:42;;;;;;;3.47;1.73;;;;;;;;;;5055688;28;20013;-67
2022/10/03 00:44:31;;;;;;;3.05;1.73;;;;;;;;;;5055678;28;20028;-68
2022/10/03 00:47:36;;;;;;;2.47;1.48;;;;;;;;;;5029998;28;20083;-68
2022/10/03 00:50:20;;;;;;;2.75;1.75;;;;;;;;;;4975017;28;20045;-68
2022/10/03 00:53:02;;;;;;;2.58;1.52;;;;;;;;;;4974993;28;20034;-68
2022/10/03 00:55:27;;;;;;;2.88;1.85;;;;;;;;;;5031211;28;20044;-67
2022/10/03 00:57:59;;;;;;;3.33;1.58;;;;;;;;;;5037485;28;20024;-69
2022/10/03 01:00:28;;;;;;;2.67;1.35;;;;;;;;;;5055316;28;20017;-70
2022/10/03 01:03:00;;;;;;;2.20;1.60;;;;;;;;;;5055181;28;20053;-69
2022/10/03 01:05:32;;;;;;;2.45;1.75;;;;;;;;;;5054890;28;20044;-70
2022/10/03 01:08:16;;;;;;;1.67;1.42;;;;;;;;;;5055084;28;20033;-70
2022/10/03 01:11:18;;;;;;;2.40;1.40;;;;;;;;;;5037329;28;20475;-70
2022/10/03 01:14:04;;;;;;;2.50;1.42;;;;;;;;;;4973900;28;20059;-70
2022/10/03 01:16:42;;;;;;;2.17;1.40;;;;;;;;;;5032425;28;20067;-70
2022/10/03 01:19:17;;;;;;;3.75;1.67;;;;;;;;;;5037266;28;20029;-69
2022/10/03 01:21:45;;;;;;;1.95;1.38;;;;;;;;;;5054745;28;20108;-68
2022/10/03 01:24:37;;;;;;;2.63;1.83;;;;;;;;;;5054643;28;20044;-68
2022/10/03 01:27:07;;;;;;;3.00;1.23;;;;;;;;;;5054879;28;20060;-69
2022/10/03 01:32:36;;;;;;;1.92;1.60;;;;;;;;;;5054683;28;20025;-70
2022/10/03 01:35:24;;;;;;;2.22;1.77;;;;;;;;;;5052843;28;20057;-70
2022/10/03 01:37:57;;;;;;;2.20;1.63;;;;;;;;;;5017396;28;20033;-68
2022/10/03 01:40:46;;;;;;;3.47;1.65;;;;;;;;;;5054581;28;20028;-68
2022/10/03 01:43:23;;;;;;;2.58;1.58;;;;;;;;;;5017126;28;20037;-69
2022/10/03 01:46:04;;;;;;;3.10;1.70;;;;;;;;;;5054520;28;20517;-69
2022/10/03 01:48:30;;;;;;;3.45;1.75;;;;;;;;;;5053924;28;20033;-69
2022/10/03 01:51:05;;;;;;;4.13;1.73;;;;;;;;;;5054118;28;20025;-69
2022/10/03 01:54:06;;;;;;;1.95;1.60;;;;;;;;;;5054642;28;20099;-68
2022/10/03 01:56:38;;;;;;;2.35;1.65;;;;;;;;;;4973723;28;20046;-69
2022/10/03 01:59:03;;;;;;;3.35;1.60;;;;;;;;;;5041273;28;20033;-69
2022/10/03 02:01:47;;;;;;;3.65;1.85;;;;;;;;;;5054144;28;20024;-69
2022/10/03 02:04:20;;;;;;;4.07;1.63;;;;;;;;;;5053940;28;20033;-69
2022/10/03 02:06:48;;;;;;;3.65;1.70;;;;;;;;;;5052930;28;20067;-69
2022/10/03 02:09:23;;;;;;;2.30;1.70;;;;;;;;;;5054312;28;20021;-69
2022/10/03 02:11:49;;;;;;;2.80;1.85;;;;;;;;;;5054370;28;20037;-67
2022/10/03 02:14:28;;;;;;;2.03;1.27;;;;;;;;;;5054088;28;20017;-69
2022/10/03 02:16:56;;;;;;;4.25;1.52;;;;;;;;;;5053998;28;20033;-69
2022/10/03 02:19:41;;;;;;;5.80;1.58;;;;;;;;;;5052889;28;20016;-68
2022/10/03 02:22:14;;;;;;;2.70;1.45;;;;;;;;;;5054318;28;20155;-68
2022/10/03 02:24:49;;;;;;;2.13;1.60;;;;;;;;;;5054113;28;20101;-68
2022/10/03 02:27:34;;;;;;;1.50;1.35;;;;;;;;;;5053989;28;20036;-70
2022/10/03 02:30:03;;;;;;;1.63;1.42;;;;;;;;;;5053910;28;20395;-70
2022/10/03 02:32:48;;;;;;;3.83;1.50;;;;;;;;;;5065305;22;20102;-70
2022/10/03 02:35:24;;;;;;;5.07;1.75;;;;;;;;;;5052244;28;20121;-70
2022/10/03 02:38:09;;;;;;;4.07;1.55;;;;;;;;;;5053381;28;20037;-69
2022/10/03 02:40:38;;;;;;;2.97;1.58;;;;;;;;;;5040104;28;20037;-69
2022/10/03 02:43:15;;;;;;;2.55;1.35;;;;;;;;;;5053819;28;20384;-69
2022/10/03 02:45:42;;;;;;;3.60;1.52;;;;;;;;;;5053679;28;20055;-69
2022/10/03 02:48:16;;;;;;;2.90;1.52;;;;;;;;;;5056122;28;20127;-70
2022/10/03 02:50:57;;;;;;;4.13;1.48;;;;;;;;;;5057763;28;20021;-69
2022/10/03 02:53:22;;;;;;;;;;;;;;;;;;5058308;28;20029;-69
2022/10/03 02:55:54;;;;;;;3.30;1.30;;;;;;;;;;5056354;28;20343;-69
2022/10/03 02:58:35;;;;;;;4.50;1.70;;;;;;;;;;5057713;28;20108;-70
2022/10/03 03:01:04;;;;;;;3.63;1.33;;;;;;;;;;5023057;28;20438;-70
2022/10/03 03:03:39;;;;;;;3.90;1.85;;;;;;;;;;5057676;28;20032;-70
2022/10/03 03:06:15;;;;;;;5.55;1.58;;;;;;;;;;5057409;28;20386;-69
2022/10/03 03:08:59;;;;;;;2.15;1.48;;;;;;;;;;5057024;28;20115;-69
2022/10/03 03:11:25;;;;;;;2.58;1.50;;;;;;;;;;5039131;28;20108;-70
2022/10/03 03:14:09;;;;;;;3.15;1.40;;;;;;;;;;5057014;28;20556;-70
2022/10/03 03:16:48;;;;;;;5.50;1.55;;;;;;;;;;5057207;28;20029;-71
2022/10/03 03:19:22;;;;;;;2.67;1.50;;;;;;;;;;5057340;28;20033;-70
2022/10/03 03:22:01;;;;;;;3.00;1.52;;;;;;;;;;5057061;28;20040;-71
2022/10/03 03:24:46;;;;;;;2.95;1.40;;;;;;;;;;5039419;28;20450;-70
2022/10/03 03:27:22;;;;;;;2.80;1.40;;;;;;;;;;5057003;28;20117;-71
2022/10/03 03:30:15;;;;;;;2.63;1.10;;;;;;;;;;5057089;28;20032;-71
2022/10/03 03:32:40;;;;;;;3.90;1.33;;;;;;;;;;5053281;28;20037;-70
2022/10/03 03:35:18;;;;;;;3.67;1.45;;;;;;;;;;5057310;28;20444;-69
2022/10/03 03:37:53;;;;;;;1.75;1.30;;;;;;;;;;5057240;28;20029;-72
2022/10/03 03:40:21;;;;;;;2.85;1.27;;;;;;;;;;5054331;28;20025;-71
2022/10/03 03:42:47;;;;;;;3.60;1.23;;;;;;;;;;5056233;28;20036;-70
2022/10/03 03:45:37;;;;;;;3.15;1.27;;;;;;;;;;5038244;28;20029;-72
2022/10/03 03:48:04;;;;;;;;;;;;;;;;;;5019650;28;20450;-69
2022/10/03 03:50:52;;;;;;;2.92;1.13;;;;;;;;;;5056056;28;19955;-71
2022/10/03 03:53:36;;;;;;;2.83;1.20;;;;;;;;;;5055579;28;20056;-71
2022/10/03 03:56:04;;;;;;;1.48;0.90;;;;;;;;;;5055454;28;20029;-71
2022/10/03 03:58:42;;;;;;;3.92;1.42;;;;;;;;;;5054330;28;20045;-69
2022/10/03 04:01:47;;;;;;;2.88;1.60;;;;;;;;;;5053695;28;20033;-69
2022/10/03 04:04:13;;;;;;;3.03;1.17;;;;;;;;;;4963450;28;20035;-69
2022/10/03 04:07:17;;;;;;;3.65;1.23;;;;;;;;;;4964124;28;20034;-70
2022/10/03 04:09:45;;;;;;;6.43;1.58;;;;;;;;;;4958081;28;20057;-70
2022/10/03 04:12:18;;;;;;;2.53;1.10;;;;;;;;;;4955228;28;20031;-71
2022/10/03 04:14:59;;;;;;;3.03;1.35;;;;;;;;;;4998335;28;20095;-70
2022/10/03 04:20:37;;;;;;;3.22;1.10;;;;;;;;;;5035149;28;20037;-70
2022/10/03 04:23:02;;;;;;;2.40;1.20;;;;;;;;;;5017910;28;20037;-70
2022/10/03 04:25:42;;;;;;;3.37;1.10;;;;;;;;;;5017292;28;20113;-71
2022/10/03 04:28:25;;;;;;;2.10;1.08;;;;;;;;;;5035267;28;20279;-71
2022/10/03 04:30:52;;;;;;;3.13;1.20;;;;;;;;;;5034919;28;20122;-71
2022/10/03 04:33:24;;;;;;;3.47;1.55;;;;;;;;;;5034039;28;20044;-70
2022/10/03 04:36:08;;;;;;;2.90;1.30;;;;;;;;;;5033959;28;20029;-71
2022/10/03 04:38:48;;;;;;;1.95;1.17;;;;;;;;;;5015946;28;20033;-71
2022/10/03 04:41:36;;;;;;;1.70;1.10;;;;;;;;;;5040534;28;20074;-71
2022/10/03 04:44:10;;;;;;;3.25;1.25;;;;;;;;;;5053681;28;20075;-70
2022/10/03 04:46:39;;;;;;;2.55;1.17;;;;;;;;;;5054592;28;20082;-70
2022/10/03 04:49:04;;;;;;;1.35;0.88;;;;;;;;;;5054661;28;20020;-71
2022/10/03 04:51:41;;;;;;;3.25;1.17;;;;;;;;;;5036595;28;20439;-70
2022/10/03 04:54:25;;;;;;;3.47;1.30;;;;;;;;;;5054778;28;20086;-69
2022/10/03 04:57:03;;;;;;;3.53;1.35;;;;;;;;;;5035841;28;20029;-71
2022/10/03 04:59:30;;;;;;;1.98;1.00;;;;;;;;;;5053536;28;20120;-70
2022/10/03 05:02:01;;;;;;;2.65;1.10;;;;;;;;;;5053466;28;20020;-71
2022/10/03 05:04:27;;;;;;;3.45;1.20;;;;;;;;;;5053264;28;20041;-70
2022/10/03 05:06:55;;;;;;;1.83;0.88;;;;;;;;;;5052455;28;20100;-71
2022/10/03 05:09:31;;;;;;;2.47;1.05;;;;;;;;;;5053468;28;20025;-70
2022/10/03 05:12:05;;;;;;;2.15;0.85;;;;;;;;;;5052899;28;20051;-71
2022/10/03 05:14:43;;;;;;;1.38;0.82;;;;;;;;;;5053504;28;20029;-71
2022/10/03 05:17:13;;;;;;;2.72;0.90;;;;;;;;;;5035675;28;20080;-70
2022/10/03 05:19:40;;;;;;;2.25;0.95;;;;;;;;;;5053515;28;20061;-78
2022/10/03 05:22:22;;;;;;;3.20;0.80;;;;;;;;;;5053481;28;20071;-71
2022/10/03 05:25:10;;;;;;;1.55;1.00;;;;;;;;;;5053089;28;20326;-70
2022/10/03 05:27:35;;;;;;;1.25;0.98;;;;;;;;;;5053269;28;20118;-71
2022/10/03 05:30:03;;;;;;;1.85;1.10;;;;;;;;;;5052811;28;20497;-70
2022/10/03 05:32:48;;;;;;;2.85;1.13;;;;;;;;;;5052189;28;20041;-71
2022/10/03 05:35:32;;;;;;;1.55;0.95;;;;;;;;;;5053123;28;20033;-71
2022/10/03 05:38:00;;;;;;;1.17;0.95;;;;;;;;;;5052892;28;20486;-71
2022/10/03 05:40:27;;;;;;;1.98;1.00;;;;;;;;;;5053137;28;20020;-70
2022/10/03 05:42:56;;;;;;;2.63;1.40;;;;;;;;;;5051646;28;20372;-71
2022/10/03 05:45:22;;;;;;;2.15;1.10;;;;;;;;;;5052762;28;20033;-71
2022/10/03 05:47:50;;;;;;;1.63;0.98;;;;;;;;;;5052988;28;20108;-71
2022/10/03 05:50:29;;;;;;;4.60;0.98;;;;;;;;;;5052995;28;20121;-71
2022/10/03 05:53:24;;;;;;;1.45;0.70;;;;;;;;;;5052573;28;20036;-70
2022/10/03 05:56:03;;;;;;;1.73;0.77;;;;;;;;;;4981467;28;20039;-71
2022/10/03 05:58:37;;;;;;;2.10;1.00;;;;;;;;;;5052554;28;20028;-72
2022/10/03 06:01:12;;;;;;;1.60;0.93;;;;;;;;;;5052759;28;20033;-72
2022/10/03 06:04:01;;;;;;;2.28;0.98;;;;;;;;;;5053253;28;20108;-72
2022/10/03 06:06:33;;;;;;;2.10;0.85;;;;;;;;;;5027119;28;20056;-71
2022/10/03 06:09:11;;;;;;;2.05;1.13;;;;;;;;;;5052632;28;20059;-71
2022/10/03 06:11:42;;;;;;;2.15;0.93;;;;;;;;;;5052684;28;20112;-71
2022/10/03 06:14:26;;;;;;;3.35;1.17;;;;;;;;;;5034996;28;20021;-71
2022/10/03 06:17:10;;;;;;;3.30;1.40;;;;;;;;;;5051054;28;20112;-71
2022/10/03 06:19:38;;;;;;;2.03;0.93;;;;;;;;;;5052524;28;20119;-71
2022/10/03 06:22:22;;;;;;;1.73;0.82;;;;;;;;;;5051850;28;20013;-71
2022/10/03 06:25:03;;;;;;;1.27;0.88;;;;;;;;;;5052785;28;20025;-71
2022/10/03 06:27:47;;;;;;;3.08;0.95;;;;;;;;;;5052437;28;20028;-71
2022/10/03 06:30:39;;;;;;;4.00;1.02;;;;;;;;;;5051884;28;20025;-71
2022/10/03 06:33:24;;;;;;;2.05;0.98;;;;;;;;;;5021190;28;20511;-70
2022/10/03 06:36:01;;;;;;;4.20;1.10;;;;;;;;;;5052397;28;20159;-71
2022/10/03 06:38:45;;;;;;;2.38;1.20;;;;;;;;;;5052596;28;20493;-71
2022/10/03 06:41:25;;;;;;;1.42;0.90;;;;;;;;;;5052626;28;20064;-71
2022/10/03 06:43:55;;;;;;;1.40;1.00;;;;;;;;;;5053914;28;20029;-71
2022/10/03 06:46:39;;;;;;;1.92;1.00;;;;;;;;;;5053847;28;20037;-71
2022/10/03 06:49:16;;;;;;;3.75;1.20;;;;;;;;;;5053964;28;20029;-72
2022/10/03 06:51:51;;;;;;;2.88;1.08;;;;;;;;;;5035332;28;20078;-71
2022/10/03 06:54:43;;;;;;;3.58;1.10;;;;;;;;;;5051707;28;20037;-70
2022/10/03 06:57:32;;;;;;;2.65;1.10;;;;;;;;;;5035550;28;20037;-70
2022/10/03 07:00:18;;;;;;;2.78;1.02;;;;;;;;;;4999301;28;20049;-69
2022/10/03 07:02:59;;;;;;;2.80;1.08;;;;;;;;;;5053224;28;20021;-70
2022/10/03 07:05:39;;;;;;;2.17;1.25;;;;;;;;;;5053307;28;20031;-71
2022/10/03 07:08:08;;;;;;;2.25;1.02;;;;;;;;;;5053257;28;20032;-71
2022/10/03 07:10:46;;;;;;;2.45;0.80;;;;;;;;;;5053223;28;20017;-71
2022/10/03 07:13:14;;;;;;;1.88;1.00;;;;;;;;;;5053274;28;20071;-71
2022/10/03 07:15:42;;;;;;;1.40;0.90;;;;;;;;;;5053151;28;20087;-71
2022/10/03 07:18:31;;;;;;;2.30;1.13;;;;;;;;;;5052664;28;20526;-71
2022/10/03 07:21:20;;;;;;;2.80;0.90;;;;;;;;;;5042271;28;20037;-71
2022/10/03 07:24:02;;;;;;;2.38;0.85;;;;;;;;;;5052950;28;20476;-70
2022/10/03 07:26:36;;;;;;;2.60;1.10;;;;;;;;;;5052886;28;20119;-71
2022/10/03 07:29:11;;;;;;;4.18;1.20;;;;;;;;;;5052946;28;20036;-70
2022/10/03 07:31:42;;;;;;;2.75;1.30;;;;;;;;;;5031550;28;20041;-70
2022/10/03 07:34:18;;;;;;;2.03;0.98;;;;;;;;;;5035902;28;20038;-71
2022/10/03 07:40:00;;;;;;;1.60;1.20;;;;;;;;;;5036609;28;20025;-71
2022/10/03 07:42:53;;;;;;;3.95;1.30;;;;;;;;;;5036563;28;20068;-71
2022/10/03 07:45:38;;;;;;;1.48;0.82;;;;;;;;;;5036547;28;20524;-71
2022/10/03 07:48:23;;;;;;;1.83;1.20;;;;;;;;;;5035160;28;20041;-72
2022/10/03 07:50:58;;;;;;;0.88;0.75;;;;;;;;;;5036382;28;20079;-71
2022/10/03 07:53:42;;;;;;;1.27;1.15;;;;;;;;;;5034883;28;20434;-70
2022/10/03 07:56:26;;;;;;;2.03;1.00;;;;;;;;;;5051672;28;20361;-70
2022/10/03 07:59:24;;;;;;;1.45;0.73;;;;;;;;;;5036154;28;20532;-71
2022/10/03 08:02:09;;;;;;;3.58;0.98;;;;;;;;;;4991951;28;20071;-71
2022/10/03 08:04:41;;;;;;;1.05;0.90;;;;;;;;;;5004067;28;20050;-71
2022/10/03 08:07:25;;;;;;;1.42;0.90;;;;;;;;;;5035437;28;20029;-71
2022/10/03 08:09:59;;;;;;;1.33;1.00;;;;;;;;;;5035907;28;20144;-71
2022/10/03 08:12:47;;;;;;;1.73;0.80;;;;;;;;;;5034149;28;20480;-71
2022/10/03 08:15:31;;;;;;;1.90;0.95;;;;;;;;;;5035225;28;20036;-71
2022/10/03 08:18:25;;;;;;;1.52;0.88;;;;;;;;;;5035510;28;20059;-71
2022/10/03 08:20:57;;;;;;;0.77;0.70;;;;;;;;;;5035528;28;20033;-71
2022/10/03 08:23:23;;;;;;;2.53;1.00;;;;;;;;;;5035039;28;20044;-70
2022/10/03 08:26:13;;;;;;;3.78;1.02;;;;;;;;;;5035009;28;20026;-70
2022/10/03 08:28:40;;;;;;;1.58;0.82;;;;;;;;;;5035490;28;20091;-71
2022/10/03 08:31:24;;;;;;;4.20;1.02;;;;;;;;;;5035265;28;20030;-71
2022/10/03 08:33:49;;;;;;;1.60;0.88;;;;;;;;;;5034022;28;20128;-71
2022/10/03 08:36:33;;;;;;;2.17;0.88;;;;;;;;;;5035269;28;20121;-71
2022/10/03 08:39:25;;;;;;;2.50;0.88;;;;;;;;;;5034995;28;20030;-71
2022/10/03 08:42:08;;;;;;;1.52;0.90;;;;;;;;;;5035147;28;20057;-71
2022/10/03 08:44:43;;;;;;;1.95;0.90;;;;;;;;;;5034600;28;20033;-71
2022/10/03 08:47:18;;;;;;;0.98;0.88;;;;;;;;;;5035092;28;20068;-71
2022/10/03 08:49:50;;;;;;;2.10;0.80;;;;;;;;;;5034677;28;20384;-70
2022/10/03 08:52:28;;;;;;;2.85;0.95;;;;;;;;;;5034863;28;20038;-71
2022/10/03 08:55:06;;;;;;;1.40;0.70;;;;;;;;;;5033578;28;20056;-70
2022/10/03 08:57:50;;;;;;;1.95;0.95;;;;;;;;;;5033825;28;20053;-71
2022/10/03 09:00:36;;;;;;;1.30;0.80;;;;;;;;;;5032758;28;20036;-71
2022/10/03 09:03:23;;;;;;;1.50;0.80;;;;;;;;;;5034460;28;20112;-71
2022/10/03 09:06:18;;;;;;;1.13;0.70;;;;;;;;;;5034588;28;20124;-70
2022/10/03 09:08:53;;;;;;;2.63;1.00;;;;;;;;;;5034675;28;20029;-70
2022/10/03 09:11:37;;;;;;;0.90;0.70;;;;;;;;;;5034468;28;20025;-71
2022/10/03 09:14:05;;;;;;;1.67;1.27;;;;;;;;;;5034672;28;20375;-71
2022/10/03 09:16:58;;;;;;;1.67;1.00;;;;;;;;;;5049438;28;20045;-71
2022/10/03 09:19:24;;;;;;;0.57;0.57;;;;;;;;;;5034413;28;20033;-71
2022/10/03 09:22:02;;;;;;;1.90;1.00;;;;;;;;;;5034198;28;20018;-71
2022/10/03 09:24:46;;;;;;;1.65;0.80;;;;;;;;;;5034070;28;20272;-71
2022/10/03 09:27:31;;;;;;;3.00;0.90;;;;;;;;;;5032692;28;20036;-71
2022/10/03 09:30:15;;;;;;;1.55;0.70;;;;;;;;;;5034573;28;20033;-72
2022/10/03 09:32:56;;;;;;;0.80;0.60;;;;;;;;;;5046899;28;20128;-71
2022/10/03 09:35:27;;;;;;;2.03;0.80;;;;;;;;;;5052792;28;20033;-71
2022/10/03 09:38:12;;;;;;;1.05;0.57;;;;;;;;;;5052893;28;20032;-72
2022/10/03 09:40:43;;;;;;;0.95;0.65;;;;;;;;;;5054588;28;20029;-72
2022/10/03 09:43:27;;;;;;;0.95;0.80;;;;;;;;;;5053747;28;20025;-71
2022/10/03 09:46:08;;;;;;;1.25;0.70;;;;;;;;;;5035399;28;20024;-71
2022/10/03 09:48:43;;;;;;;0.90;0.70;;;;;;;;;;5052294;28;20044;-72
2022/10/03 09:51:09;;;;;;;1.00;0.65;;;;;;;;;;5035021;28;20398;-72
2022/10/03 09:53:54;;;;;;;0.80;0.60;;;;;;;;;;5036014;28;20024;-71
2022/10/03 09:56:28;;;;;;;1.23;0.77;;;;;;;;;;5052148;28;20059;-72
2022/10/03 09:59:12;;;;;;;0.75;0.68;;;;;;;;;;5054194;28;20067;-71
2022/10/03 10:01:44;;;;;;;1.60;0.90;;;;;;;;;;5036115;28;20021;-71
2022/10/03 10:04:29;;;;;;;1.13;0.75;;;;;;;;;;5053802;28;20431;-72
2022/10/03 10:07:06;;;;;;;1.70;0.73;;;;;;;;;;5053963;28;20075;-72
2022/10/03 10:10:00;;;;;;;0.90;0.60;;;;;;;;;;5053799;28;20075;-72
2022/10/03 10:12:31;;;;;;;2.05;0.80;;;;;;;;;;4982738;28;20482;-71
2022/10/03 10:15:00;;;;;;;1.25;0.70;;;;;;;;;;5053697;28;20104;-72
2022/10/03 10:17:45;;;;;;;1.58;0.90;;;;;;;;;;5053640;28;20024;-72
2022/10/03 10:20:10;;;;;;;1.65;0.85;;;;;;;;;;5053581;28;20020;-71
2022/10/03 10:22:39;;;;;;;1.33;0.77;;;;;;;;;;5053589;28;20078;-71
2022/10/03 10:25:19;;;;;;;1.58;0.82;;;;;;;;;;5053680;28;20271;-72
2022/10/03 10:27:44;;;;;;;0.75;0.75;;;;;;;;;;5053606;28;20075;-71
2022/10/03 10:30:15;;;;;;;2.47;0.83;;;;;;;;;;5035706;28;20053;-71
2022/10/03 10:32:41;;;;;;;1.15;0.70;;;;;;;;;;5052329;28;20292;-71
2022/10/03 10:35:25;;;;;;;1.25;0.63;;;;;;;;;;5053435;28;20134;-72
2022/10/03 10:38:02;;;;;;;1.17;0.60;;;;;;;;;;5053505;28;20103;-72
2022/10/03 10:40:57;;;;;;;1.20;0.68;;;;;;;;;;5053414;28;20040;-71
2022/10/03 10:43:46;;;;;;;1.85;0.75;;;;;;;;;;5053525;28;20037;-71
2022/10/03 10:46:27;;;;;;;1.20;0.70;;;;;;;;;;5052869;28;20100;-71
2022/10/03 10:49:11;;;;;;;0.95;0.65;;;;;;;;;;5052704;28;20033;-72
2022/10/03 10:51:40;;;;;;;0.70;0.70;;;;;;;;;;5053204;28;20036;-72
2022/10/03 10:54:14;;;;;;;1.23;0.60;;;;;;;;;;5053166;28;20385;-72
2022/10/03 10:56:46;;;;;;;0.80;0.80;;;;;;;;;;5053270;28;20029;-71
2022/10/03 10:59:15;;;;;;;1.05;0.70;;;;;;;;;;5053340;28;20021;-71
2022/10/03 11:01:43;;;;;;;0.90;0.77;;;;;;;;;;5053220;28;20021;-72
2022/10/03 11:04:19;;;;;;;1.20;0.68;;;;;;;;;;5052896;28;20029;-71
2022/10/03 11:07:07;;;;;;;0.90;0.70;;;;;;;;;;5053321;28;20395;-72
2022/10/03 11:09:39;;;;;;;0.98;0.75;;;;;;;;;;5057201;28;20071;-71
2022/10/03 11:12:22;;;;;;;0.65;0.65;;;;;;;;;;5057035;28;20075;-72
2022/10/03 11:14:49;;;;;;;1.17;1.00;;;;;;;;;;5057003;28;20036;-72
2022/10/03 11:17:33;;;;;;;2.05;0.88;;;;;;;;;;5056722;28;20066;-70
2022/10/03 11:20:16;;;;;;;1.50;0.70;;;;;;;;;;5056461;28;20467;-71
2022/10/03 11:23:00;;;;;;;1.13;0.70;;;;;;;;;;5057149;28;20097;-71
2022/10/03 11:25:26;;;;;;;0.73;0.73;;;;;;;;;;5039565;28;20074;-71
2022/10/03 11:28:09;;;;;;;1.92;0.73;;;;;;;;;;5057102;28;20394;-71
2022/10/03 11:30:35;;;;;;;1.23;0.77;;;;;;;;;;5056580;28;20032;-71
2022/10/03 11:33:28;;;;;;;0.93;0.50;;;;;;;;;;5056392;28;20049;-71
2022/10/03 11:36:05;;;;;;;0.82;0.63;;;;;;;;;;5056439;28;20467;-71
2022/10/03 11:38:54;;;;;;;0.90;0.77;;;;;;;;;;5036774;28;20570;-71
2022/10/03 11:41:38;;;;;;;1.88;0.90;;;;;;;;;;5054036;28;20116;-71
2022/10/03 11:44:19;;;;;;;1.35;0.70;;;;;;;;;;5054535;28;20033;-71
2022/10/03 11:47:03;;;;;;;1.52;0.52;;;;;;;;;;5054533;28;20432;-71
2022/10/03 11:49:47;;;;;;;0.82;0.80;;;;;;;;;;5055154;28;20112;-71
2022/10/03 11:52:16;;;;;;;1.00;0.90;;;;;;;;;;5037079;28;20114;-71
2022/10/03 11:54:43;;;;;;;2.13;0.60;;;;;;;;;;5053073;28;20028;-71
2022/10/03 11:57:08;;;;;;;0.93;0.80;;;;;;;;;;5038006;28;20033;-71
2022/10/03 11:59:44;;;;;;;1.67;0.80;;;;;;;;;;5038284;28;20025;-71
2022/10/03 12:02:12;;;;;;;1.10;1.05;;;;;;;;;;5056165;28;20029;-71
2022/10/03 12:05:04;;;;;;;0.70;0.65;;;;;;;;;;5056099;28;20013;-71
2022/10/03 12:10:45;;;;;;;0.70;0.68;;;;;;;;;;5025669;28;20041;-71
2022/10/03 12:13:30;;;;;;;2.88;0.73;;;;;;;;;;5055970;28;20028;-71
2022/10/03 12:15:57;;;;;;;1.70;0.77;;;;;;;;;;5055962;28;20067;-71
2022/10/03 12:18:49;;;;;;;2.33;0.80;;;;;;;;;;5056013;28;20072;-71
2022/10/03 12:21:22;;;;;;;2.80;0.82;;;;;;;;;;5055448;28;20028;-71
2022/10/03 12:23:51;;;;;;;1.08;0.90;;;;;;;;;;5055773;28;20033;-71
2022/10/03 12:26:22;;;;;;;2.70;0.80;;;;;;;;;;5037812;28;20036;-72
2022/10/03 12:28:51;;;;;;;1.17;0.90;;;;;;;;;;5055645;28;20379;-71
2022/10/03 12:31:23;;;;;;;1.45;0.88;;;;;;;;;;5055410;28;20127;-71
2022/10/03 12:33:48;;;;;;;1.73;0.85;;;;;;;;;;5055437;28;20044;-71
2022/10/03 12:36:17;;;;;;;1.20;0.85;;;;;;;;;;5055467;28;20140;-71
2022/10/03 12:38:54;;;;;;;1.08;0.98;;;;;;;;;;5055415;28;20025;-71
2022/10/03 12:41:32;;;;;;;1.73;1.02;;;;;;;;;;5055628;28;20025;-71
2022/10/03 12:44:09;;;;;;;1.08;0.90;;;;;;;;;;5055382;28;20040;-71
2022/10/03 12:46:42;;;;;;;0.95;0.82;;;;;;;;;;5055319;28;20040;-71
2022/10/03 12:49:31;;;;;;;0.77;0.77;;;;;;;;;;5055264;28;20064;-71
2022/10/03 12:51:58;;;;;;;1.15;0.80;;;;;;;;;;5044427;28;20135;-71
2022/10/03 12:54:24;;;;;;;0.80;0.77;;;;;;;;;;5055064;28;20033;-71
2022/10/03 12:56:52;;;;;;;1.20;0.77;;;;;;;;;;5055126;28;20040;-71
2022/10/03 12:59:17;;;;;;;1.90;1.10;;;;;;;;;;5053940;28;20071;-71
2022/10/03 13:02:19;;;;;;;2.13;1.10;;;;;;;;;;5054980;28;20033;-72
2022/10/03 13:04:54;;;;;;;1.40;1.30;;;;;;;;;;4958127;28;20117;-68
2022/10/03 13:07:31;;;;;;;3.05;0.90;;;;;;;;;;5044255;28;20483;-66
2022/10/03 13:10:15;;;;;;;1.48;0.98;;;;;;;;;;5055055;28;20025;-68
2022/10/03 13:12:44;;;;;;;2.33;1.10;;;;;;;;;;5055286;28;20391;-66
2022/10/03 13:15:28;;;;;;;1.35;0.90;;;;;;;;;;5055341;28;20064;-67
2022/10/03 13:17:54;;;;;;;2.17;0.95;;;;;;;;;;5055145;28;20481;-69
2022/10/03 13:20:44;;;;;;;1.25;0.98;;;;;;;;;;5037120;28;20021;-67
2022/10/03 13:23:15;;;;;;;1.60;0.90;;;;;;;;;;5037278;28;20111;-68
2022/10/03 13:25:44;;;;;;;3.42;1.27;;;;;;;;;;5055213;28;20115;-68
2022/10/03 13:28:14;;;;;;;0.90;0.80;;;;;;;;;;5036358;28;20489;-67
2022/10/03 13:30:55;;;;;;;1.10;1.00;;;;;;;;;;5036927;28;20076;-66
2022/10/03 13:33:28;;;;;;;2.47;1.20;;;;;;;;;;5054131;28;20048;-72
2022/10/03 13:35:58;;;;;;;0.90;0.90;;;;;;;;;;5054053;28;20112;-67
2022/10/03 13:38:33;;;;;;;2.40;1.08;;;;;;;;;;5045038;28;20047;-67
2022/10/03 13:41:08;;;;;;;1.40;1.08;;;;;;;;;;5048597;28;20025;-67
2022/10/03 13:43:36;;;;;;;1.20;1.10;;;;;;;;;;5050010;28;20516;-67
2022/10/03 13:46:07;;;;;;;1.58;1.13;;;;;;;;;;5049046;28;20021;-67
2022/10/03 13:48:33;;;;;;;3.28;1.23;;;;;;;;;;5049273;28;20064;-67
2022/10/03 13:51:01;;;;;;;1.27;1.15;;;;;;;;;;5049703;28;20064;-67
2022/10/03 13:53:46;;;;;;;2.13;1.42;;;;;;;;;;5048982;28;20428;-67
2022/10/03 13:56:30;;;;;;;1.40;1.27;;;;;;;;;;5049227;28;20032;-67
2022/10/03 13:59:01;;;;;;;2.40;1.38;;;;;;;;;;5049345;28;20471;-66
2022/10/03 14:01:33;;;;;;;1.25;1.05;;;;;;;;;;5048044;28;20033;-65
2022/10/03 14:04:17;;;;;;;3.70;1.38;;;;;;;;;;5049483;28;20087;-68
2022/10/03 14:06:55;;;;;;;1.30;1.20;;;;;;;;;;5049389;28;21125;-71
2022/10/03 14:09:21;;;;;;;1.48;1.10;;;;;;;;;;5049610;28;20064;-69
2022/10/03 14:11:46;;;;;;;1.77;1.38;;;;;;;;;;5049514;28;20057;-70
2022/10/03 14:14:11;;;;;;;1.73;1.25;;;;;;;;;;5048902;28;20033;-70
2022/10/03 14:16:42;;;;;;;1.20;1.20;;;;;;;;;;5049379;28;20032;-71
2022/10/03 14:19:26;;;;;;;1.83;1.30;;;;;;;;;;5049177;28;20286;-71
2022/10/03 14:22:07;;;;;;;2.10;1.10;;;;;;;;;;5048893;28;20467;-71
2022/10/03 14:24:37;;;;;;;1.20;1.10;;;;;;;;;;5048101;28;20033;-71
2022/10/03 14:27:16;;;;;;;1.17;1.05;;;;;;;;;;5049251;28;20025;-71
2022/10/03 14:29:53;;;;;;;1.38;1.27;;;;;;;;;;5048844;28;20035;-71
2022/10/03 14:32:23;;;;;;;1.25;1.15;;;;;;;;;;5048600;28;20041;-69
2022/10/03 14:35:24;;;;;;;1.30;1.20;;;;;;;;;;5047769;28;20031;-70
2022/10/03 14:37:58;;;;;;;1.40;1.30;;;;;;;;;;4966002;28;20042;-71
2022/10/03 14:40:47;;;;;;;1.10;1.10;;;;;;;;;;5037140;28;20052;-69
2022/10/03 14:43:22;;;;;;;1.65;1.13;;;;;;;;;;5050715;28;20076;-71
2022/10/03 14:45:52;;;;;;;1.77;1.30;;;;;;;;;;5033941;28;20135;-71
2022/10/03 14:48:20;;;;;;;1.13;1.05;;;;;;;;;;5053095;28;20033;-71
2022/10/03 14:50:48;;;;;;;3.08;1.30;;;;;;;;;;5053238;28;20056;-70
2022/10/03 14:53:23;;;;;;;1.88;1.02;;;;;;;;;;5051881;28;20044;-69
2022/10/03 14:55:55;;;;;;;2.30;1.45;;;;;;;;;;5053089;28;20025;-69
2022/10/03 14:58:31;;;;;;;1.30;1.25;;;;;;;;;;5033927;28;20033;-71
2022/10/03 15:01:00;;;;;;;1.48;1.30;;;;;;;;;;5053247;28;20041;-70
2022/10/03 15:03:29;;;;;;;2.17;1.33;;;;;;;;;;5034404;28;20079;-70
2022/10/03 15:06:03;;;;;;;2.15;1.30;;;;;;;;;;5051117;28;20267;-70
2022/10/03 15:08:36;;;;;;;1.25;1.15;;;;;;;;;;5052965;28;20082;-67
2022/10/03 15:11:03;;;;;;;1.50;1.40;;;;;;;;;;5035180;28;20059;-70
2022/10/03 15:13:32;;;;;;;1.52;1.33;;;;;;;;;;5052638;28;20016;-70
2022/10/03 15:15:59;;;;;;;1.25;1.15;;;;;;;;;;5051338;28;20025;-70
2022/10/03 15:18:25;;;;;;;1.50;1.40;;;;;;;;;;5052613;28;20021;-70
2022/10/03 15:20:52;;;;;;;1.75;1.23;;;;;;;;;;5052664;28;20036;-70
2022/10/03 15:23:32;;;;;;;1.67;1.50;;;;;;;;;;5052679;28;20509;-70
2022/10/03 15:25:58;;;;;;;1.60;1.30;;;;;;;;;;5050579;28;20105;-69
2022/10/03 15:28:36;;;;;;;1.45;1.35;;;;;;;;;;5033720;28;20024;-69
2022/10/03 15:31:09;;;;;;;1.80;1.70;;;;;;;;;;5053011;28;20025;-71
2022/10/03 15:33:36;;;;;;;1.77;1.35;;;;;;;;;;5050728;28;20456;-70
2022/10/03 15:36:13;;;;;;;2.20;1.55;;;;;;;;;;5052257;28;20029;-70
2022/10/03 15:38:40;;;;;;;2.25;1.90;;;;;;;;;;5051942;28;20577;-76
2022/10/03 15:41:15;;;;;;;2.83;2.50;;;;;;;;;;5051709;28;20107;-64
2022/10/03 15:43:43;;;;;;;9.13;5.03;;;;;;;;;;5052867;28;20037;-71
2022/10/03 15:46:21;;;;;;;6.63;5.45;;;;;;;;;;5052449;28;20483;-72
2022/10/03 15:52:11;;;;;;;2.72;2.53;;;;;;;;;;5051460;28;20447;-71
2022/10/03 15:54:37;;;;;;;5.82;3.88;;;;;;;;;;5051781;28;20069;-71